sensor_id;sensor_type;location;lat;lon;timestamp;pressure;altitude;pressure_sealevel;temperature;humidity
15646;BME280;7922;43.622;1.476;2023-05-09T00:00:40;100593.59;;;14.93;87.77
15646;BME280;7922;43.622;1.476;2023-05-09T00:03:05;100454.03;;;14.04;87.47
15646;BME280;7922;43.622;1.476;2023-05-09T00:05:30;100358.72;;;13.38;87.81
15646;BME280;7922;43.622;1.476;2023-05-09T00:07:56;100476.91;;;14.08;88.09
15646;BME280;7922;43.622;1.476;2023-05-09T00:10:22;100526.47;;;14.30;88.13
15646;BME280;7922;43.622;1.476;2023-05-09T00:12:47;100431.94;;;13.66;88.52
15646;BME280;7922;43.622;1.476;2023-05-09T00:15:12;100454.91;;;13.86;88.65
15646;BME280;7922;43.622;1.476;2023-05-09T00:17:38;100527.72;;;14.23;88.66
15646;BME280;7922;43.622;1.476;2023-05-09T00:20:05;100443.06;;;13.74;88.62
15646;BME280;7922;43.622;1.476;2023-05-09T00:22:31;100536.75;;;14.20;89.14
15646;BME280;7922;43.622;1.476;2023-05-09T00:24:56;100518.91;;;14.03;89.03
15646;BME280;7922;43.622;1.476;2023-05-09T00:27:21;100391.09;;;13.29;89.17
15646;BME280;7922;43.622;1.476;2023-05-09T00:29:46;100587.13;;;14.43;89.48
15646;BME280;7922;43.622;1.476;2023-05-09T00:32:12;100522.56;;;14.01;89.86
15646;BME280;7922;43.622;1.476;2023-05-09T00:34:37;100416.75;;;13.30;89.82
15646;BME280;7922;43.622;1.476;2023-05-09T00:37:02;100406.34;;;13.26;90.13
15646;BME280;7922;43.622;1.476;2023-05-09T00:39:28;100373.72;;;13.01;89.81
15646;BME280;7922;43.622;1.476;2023-05-09T00:41:55;100570.44;;;14.21;90.27
15646;BME280;7922;43.622;1.476;2023-05-09T00:44:20;100523.78;;;13.93;90.31
15646;BME280;7922;43.622;1.476;2023-05-09T00:46:45;100449.50;;;13.51;90.44
15646;BME280;7922;43.622;1.476;2023-05-09T00:49:11;100519.69;;;13.86;90.55
15646;BME280;7922;43.622;1.476;2023-05-09T00:51:38;100548.28;;;14.02;91.07
15646;BME280;7922;43.622;1.476;2023-05-09T00:54:04;100503.72;;;13.67;90.86
15646;BME280;7922;43.622;1.476;2023-05-09T00:56:29;100485.69;;;13.55;91.00
15646;BME280;7922;43.622;1.476;2023-05-09T00:58:55;100530.28;;;13.69;91.36
15646;BME280;7922;43.622;1.476;2023-05-09T01:01:20;100505.81;;;13.61;91.82
15646;BME280;7922;43.622;1.476;2023-05-09T01:03:46;100528.91;;;13.79;91.57
15646;BME280;7922;43.622;1.476;2023-05-09T01:06:21;100501.50;;;13.58;91.55
15646;BME280;7922;43.622;1.476;2023-05-09T01:14:14;100528.84;;;13.81;91.83
15646;BME280;7922;43.622;1.476;2023-05-09T01:16:52;100349.91;;;12.80;91.45
15646;BME280;7922;43.622;1.476;2023-05-09T01:21:56;100483.75;;;13.59;91.96
15646;BME280;7922;43.622;1.476;2023-05-09T01:27:52;100540.22;;;13.84;92.62
15646;BME280;7922;43.622;1.476;2023-05-09T01:30:24;100506.53;;;13.64;92.60
15646;BME280;7922;43.622;1.476;2023-05-09T01:32:50;100502.22;;;13.62;92.54
15646;BME280;7922;43.622;1.476;2023-05-09T01:35:19;100359.75;;;12.77;92.66
15646;BME280;7922;43.622;1.476;2023-05-09T01:37:48;100526.47;;;13.75;92.55
15646;BME280;7922;43.622;1.476;2023-05-09T01:40:16;100498.84;;;13.58;92.49
15646;BME280;7922;43.622;1.476;2023-05-09T01:42:50;100430.34;;;13.24;91.95
15646;BME280;7922;43.622;1.476;2023-05-09T01:45:16;100366.09;;;12.94;91.88
15646;BME280;7922;43.622;1.476;2023-05-09T01:47:43;100436.16;;;13.32;91.77
15646;BME280;7922;43.622;1.476;2023-05-09T01:50:10;100335.47;;;12.85;91.66
15646;BME280;7922;43.622;1.476;2023-05-09T01:52:37;100332.53;;;12.91;91.13
15646;BME280;7922;43.622;1.476;2023-05-09T01:55:04;100464.50;;;13.71;91.56
15646;BME280;7922;43.622;1.476;2023-05-09T01:57:30;100461.78;;;13.72;91.51
15646;BME280;7922;43.622;1.476;2023-05-09T01:59:56;100444.16;;;13.70;91.54
15646;BME280;7922;43.622;1.476;2023-05-09T02:02:22;100370.97;;;13.23;91.27
15646;BME280;7922;43.622;1.476;2023-05-09T02:04:48;100350.16;;;13.32;91.34
15646;BME280;7922;43.622;1.476;2023-05-09T02:07:14;100409.47;;;13.71;91.19
15646;BME280;7922;43.622;1.476;2023-05-09T02:09:40;100329.31;;;13.22;91.17
15646;BME280;7922;43.622;1.476;2023-05-09T02:12:06;100304.31;;;13.08;91.47
15646;BME280;7922;43.622;1.476;2023-05-09T02:14:31;100312.69;;;13.17;91.53
15646;BME280;7922;43.622;1.476;2023-05-09T02:16:56;100243.94;;;12.72;91.42
15646;BME280;7922;43.622;1.476;2023-05-09T02:19:22;100420.53;;;13.81;91.03
15646;BME280;7922;43.622;1.476;2023-05-09T02:21:47;100438.72;;;13.90;90.82
15646;BME280;7922;43.622;1.476;2023-05-09T02:24:12;100488.84;;;14.18;91.03
15646;BME280;7922;43.622;1.476;2023-05-09T02:26:39;100491.50;;;14.18;91.84
15646;BME280;7922;43.622;1.476;2023-05-09T02:29:05;100395.91;;;13.59;91.27
15646;BME280;7922;43.622;1.476;2023-05-09T02:31:32;100275.75;;;12.92;91.17
15646;BME280;7922;43.622;1.476;2023-05-09T02:33:59;100305.53;;;13.00;91.07
15646;BME280;7922;43.622;1.476;2023-05-09T02:36:25;100456.88;;;13.82;90.93
15646;BME280;7922;43.622;1.476;2023-05-09T02:38:51;100391.28;;;13.43;91.07
15646;BME280;7922;43.622;1.476;2023-05-09T02:41:17;100340.81;;;13.23;90.93
15646;BME280;7922;43.622;1.476;2023-05-09T02:43:42;100338.28;;;13.20;90.57
15646;BME280;7922;43.622;1.476;2023-05-09T02:46:08;100465.53;;;13.87;90.74
15646;BME280;7922;43.622;1.476;2023-05-09T02:48:34;100460.19;;;13.87;90.93
15646;BME280;7922;43.622;1.476;2023-05-09T02:50:59;100466.06;;;13.94;90.99
15646;BME280;7922;43.622;1.476;2023-05-09T02:53:25;100472.31;;;13.93;90.86
15646;BME280;7922;43.622;1.476;2023-05-09T02:55:50;100514.00;;;14.13;91.01
15646;BME280;7922;43.622;1.476;2023-05-09T02:58:15;100513.47;;;14.24;90.83
15646;BME280;7922;43.622;1.476;2023-05-09T03:00:41;100373.81;;;13.38;91.03
15646;BME280;7922;43.622;1.476;2023-05-09T03:03:07;100475.47;;;14.01;90.77
15646;BME280;7922;43.622;1.476;2023-05-09T03:05:32;100455.00;;;13.84;91.09
15646;BME280;7922;43.622;1.476;2023-05-09T03:07:58;100409.13;;;13.60;90.60
15646;BME280;7922;43.622;1.476;2023-05-09T03:10:23;100324.50;;;13.12;90.80
15646;BME280;7922;43.622;1.476;2023-05-09T03:12:48;100516.28;;;14.20;91.07
15646;BME280;7922;43.622;1.476;2023-05-09T03:15:13;100411.16;;;13.55;90.92
15646;BME280;7922;43.622;1.476;2023-05-09T03:17:39;100369.59;;;13.34;91.06
15646;BME280;7922;43.622;1.476;2023-05-09T03:20:05;100459.97;;;13.92;91.23
15646;BME280;7922;43.622;1.476;2023-05-09T03:22:30;100328.16;;;13.09;91.35
15646;BME280;7922;43.622;1.476;2023-05-09T03:24:56;100446.59;;;13.75;91.28
15646;BME280;7922;43.622;1.476;2023-05-09T03:27:21;100418.19;;;13.56;91.24
15646;BME280;7922;43.622;1.476;2023-05-09T03:29:46;100354.63;;;13.31;90.96
15646;BME280;7922;43.622;1.476;2023-05-09T03:32:11;100321.75;;;13.13;90.97
15646;BME280;7922;43.622;1.476;2023-05-09T03:34:37;100463.84;;;13.85;91.13
15646;BME280;7922;43.622;1.476;2023-05-09T03:37:02;100467.81;;;13.95;91.48
15646;BME280;7922;43.622;1.476;2023-05-09T03:39:27;100465.06;;;13.96;91.72
15646;BME280;7922;43.622;1.476;2023-05-09T03:41:53;100323.06;;;13.05;91.37
15646;BME280;7922;43.622;1.476;2023-05-09T03:44:18;100473.75;;;14.00;91.55
15646;BME280;7922;43.622;1.476;2023-05-09T03:46:43;100427.09;;;13.74;91.46
15646;BME280;7922;43.622;1.476;2023-05-09T03:49:08;100438.50;;;13.76;91.87
15646;BME280;7922;43.622;1.476;2023-05-09T03:51:34;100323.97;;;13.22;91.99
15646;BME280;7922;43.622;1.476;2023-05-09T03:53:59;100310.09;;;13.16;92.26
15646;BME280;7922;43.622;1.476;2023-05-09T03:56:24;100352.16;;;13.45;92.53
15646;BME280;7922;43.622;1.476;2023-05-09T03:58:50;100319.09;;;13.32;92.15
15646;BME280;7922;43.622;1.476;2023-05-09T04:01:15;100334.53;;;13.43;92.04
15646;BME280;7922;43.622;1.476;2023-05-09T04:03:40;100438.28;;;14.00;92.24
15646;BME280;7922;43.622;1.476;2023-05-09T04:06:06;100408.50;;;13.91;92.08
15646;BME280;7922;43.622;1.476;2023-05-09T04:08:32;100267.44;;;13.00;92.00
15646;BME280;7922;43.622;1.476;2023-05-09T04:10:57;100271.22;;;12.94;92.28
15646;BME280;7922;43.622;1.476;2023-05-09T04:13:22;100421.63;;;13.77;92.00
15646;BME280;7922;43.622;1.476;2023-05-09T04:15:48;100282.88;;;12.92;91.93
15646;BME280;7922;43.622;1.476;2023-05-09T04:18:13;100370.78;;;13.45;92.30
15646;BME280;7922;43.622;1.476;2023-05-09T04:20:38;100447.59;;;13.91;92.25
15646;BME280;7922;43.622;1.476;2023-05-09T04:23:04;100443.13;;;13.91;92.30
15646;BME280;7922;43.622;1.476;2023-05-09T04:25:29;100445.22;;;13.85;92.29
15646;BME280;7922;43.622;1.476;2023-05-09T04:27:54;100322.13;;;13.06;92.20
15646;BME280;7922;43.622;1.476;2023-05-09T04:30:20;100285.84;;;12.86;92.74
15646;BME280;7922;43.622;1.476;2023-05-09T04:32:45;100415.91;;;13.48;93.17
15646;BME280;7922;43.622;1.476;2023-05-09T04:35:11;100294.22;;;12.76;93.18
15646;BME280;7922;43.622;1.476;2023-05-09T04:37:36;100251.91;;;12.53;93.28
15646;BME280;7922;43.622;1.476;2023-05-09T04:40:02;100406.19;;;13.47;93.49
15646;BME280;7922;43.622;1.476;2023-05-09T04:42:28;100368.34;;;13.22;93.11
15646;BME280;7922;43.622;1.476;2023-05-09T04:44:53;100371.81;;;13.24;93.21
15646;BME280;7922;43.622;1.476;2023-05-09T04:47:18;100409.91;;;13.43;93.31
15646;BME280;7922;43.622;1.476;2023-05-09T04:49:43;100289.41;;;12.85;92.97
15646;BME280;7922;43.622;1.476;2023-05-09T04:52:09;100367.88;;;13.33;92.64
15646;BME280;7922;43.622;1.476;2023-05-09T04:54:34;100391.34;;;13.61;92.49
15646;BME280;7922;43.622;1.476;2023-05-09T04:56:59;100401.94;;;13.62;92.40
15646;BME280;7922;43.622;1.476;2023-05-09T04:59:24;100472.91;;;14.00;92.44
15646;BME280;7922;43.622;1.476;2023-05-09T05:01:50;100311.81;;;13.17;91.66
15646;BME280;7922;43.622;1.476;2023-05-09T05:04:15;100287.53;;;13.06;92.19
15646;BME280;7922;43.622;1.476;2023-05-09T05:06:40;100382.50;;;13.60;91.58
15646;BME280;7922;43.622;1.476;2023-05-09T05:09:05;100385.50;;;13.71;91.18
15646;BME280;7922;43.622;1.476;2023-05-09T05:11:31;100366.66;;;13.57;91.10
15646;BME280;7922;43.622;1.476;2023-05-09T05:13:56;100477.75;;;14.28;91.05
15646;BME280;7922;43.622;1.476;2023-05-09T05:16:21;100410.94;;;13.96;90.71
15646;BME280;7922;43.622;1.476;2023-05-09T05:18:47;100322.38;;;13.56;90.51
15646;BME280;7922;43.622;1.476;2023-05-09T05:21:12;100377.44;;;13.90;90.60
15646;BME280;7922;43.622;1.476;2023-05-09T05:23:37;100453.94;;;14.42;90.57
15646;BME280;7922;43.622;1.476;2023-05-09T05:26:02;100447.56;;;14.44;90.59
15646;BME280;7922;43.622;1.476;2023-05-09T05:28:28;100285.34;;;13.52;90.71
15646;BME280;7922;43.622;1.476;2023-05-09T05:30:53;100220.44;;;13.18;90.17
15646;BME280;7922;43.622;1.476;2023-05-09T05:33:18;100364.25;;;14.06;90.21
15646;BME280;7922;43.622;1.476;2023-05-09T05:35:44;100439.03;;;14.55;89.75
15646;BME280;7922;43.622;1.476;2023-05-09T05:38:09;100260.84;;;13.62;89.45
15646;BME280;7922;43.622;1.476;2023-05-09T05:40:34;100344.34;;;14.13;89.10
15646;BME280;7922;43.622;1.476;2023-05-09T05:42:59;100329.13;;;14.15;89.37
15646;BME280;7922;43.622;1.476;2023-05-09T05:45:25;100395.38;;;14.58;89.37
15646;BME280;7922;43.622;1.476;2023-05-09T05:47:50;100255.34;;;13.83;89.34
15646;BME280;7922;43.622;1.476;2023-05-09T05:50:15;100395.91;;;14.64;89.20
15646;BME280;7922;43.622;1.476;2023-05-09T05:52:40;100366.44;;;14.50;89.34
15646;BME280;7922;43.622;1.476;2023-05-09T05:55:06;100449.88;;;15.03;88.98
15646;BME280;7922;43.622;1.476;2023-05-09T05:57:32;100282.53;;;14.07;88.49
15646;BME280;7922;43.622;1.476;2023-05-09T05:59:57;100371.69;;;14.52;88.80
15646;BME280;7922;43.622;1.476;2023-05-09T06:02:22;100435.06;;;14.97;88.82
15646;BME280;7922;43.622;1.476;2023-05-09T06:04:48;100397.50;;;14.84;88.85
15646;BME280;7922;43.622;1.476;2023-05-09T06:07:13;100387.22;;;14.94;88.52
15646;BME280;7922;43.622;1.476;2023-05-09T06:09:39;100374.47;;;14.99;88.10
15646;BME280;7922;43.622;1.476;2023-05-09T06:12:04;100395.50;;;15.21;88.05
15646;BME280;7922;43.622;1.476;2023-05-09T06:14:30;100207.38;;;14.33;87.57
15646;BME280;7922;43.622;1.476;2023-05-09T06:16:55;100391.59;;;15.44;86.87
15646;BME280;7922;43.622;1.476;2023-05-09T06:19:20;100345.31;;;15.28;86.96
15646;BME280;7922;43.622;1.476;2023-05-09T06:21:46;100280.69;;;14.91;86.55
15646;BME280;7922;43.622;1.476;2023-05-09T06:24:11;100261.91;;;14.77;86.44
15646;BME280;7922;43.622;1.476;2023-05-09T06:26:36;100414.28;;;15.69;86.35
15646;BME280;7922;43.622;1.476;2023-05-09T06:29:02;100424.56;;;15.59;86.48
15646;BME280;7922;43.622;1.476;2023-05-09T06:31:28;100425.72;;;15.71;86.18
15646;BME280;7922;43.622;1.476;2023-05-09T06:33:54;100253.91;;;14.77;85.88
15646;BME280;7922;43.622;1.476;2023-05-09T06:36:19;100338.09;;;15.46;85.76
15646;BME280;7922;43.622;1.476;2023-05-09T06:38:45;100398.63;;;15.93;85.00
15646;BME280;7922;43.622;1.476;2023-05-09T06:41:10;100341.44;;;15.65;85.15
15646;BME280;7922;43.622;1.476;2023-05-09T06:43:35;100348.44;;;15.68;85.52
15646;BME280;7922;43.622;1.476;2023-05-09T06:46:01;100366.22;;;15.83;85.95
15646;BME280;7922;43.622;1.476;2023-05-09T06:48:26;100278.44;;;15.31;86.94
15646;BME280;7922;43.622;1.476;2023-05-09T06:50:52;100359.47;;;15.77;86.44
15646;BME280;7922;43.622;1.476;2023-05-09T06:53:17;100322.06;;;15.46;86.47
15646;BME280;7922;43.622;1.476;2023-05-09T06:55:42;100392.88;;;15.84;87.13
15646;BME280;7922;43.622;1.476;2023-05-09T06:58:08;100365.56;;;15.79;87.13
15646;BME280;7922;43.622;1.476;2023-05-09T07:00:33;100393.91;;;15.82;87.11
15646;BME280;7922;43.622;1.476;2023-05-09T07:02:59;100367.88;;;15.85;87.55
15646;BME280;7922;43.622;1.476;2023-05-09T07:05:24;100224.56;;;15.08;87.46
15646;BME280;7922;43.622;1.476;2023-05-09T07:07:49;100261.00;;;15.39;87.83
15646;BME280;7922;43.622;1.476;2023-05-09T07:10:14;100252.16;;;15.39;87.88
15646;BME280;7922;43.622;1.476;2023-05-09T07:12:40;100394.84;;;16.27;87.89
15646;BME280;7922;43.622;1.476;2023-05-09T07:15:06;100353.09;;;16.10;87.42
15646;BME280;7922;43.622;1.476;2023-05-09T07:17:31;100255.47;;;15.58;86.42
15646;BME280;7922;43.622;1.476;2023-05-09T07:19:56;100321.00;;;16.10;86.47
15646;BME280;7922;43.622;1.476;2023-05-09T07:22:22;100248.00;;;15.79;85.77
15646;BME280;7922;43.622;1.476;2023-05-09T07:24:47;100319.13;;;16.26;85.63
15646;BME280;7922;43.622;1.476;2023-05-09T07:27:12;100366.63;;;16.66;84.06
15646;BME280;7922;43.622;1.476;2023-05-09T07:29:38;100324.13;;;16.47;82.57
15646;BME280;7922;43.622;1.476;2023-05-09T07:32:03;100249.53;;;16.28;83.17
15646;BME280;7922;43.622;1.476;2023-05-09T07:34:28;100201.91;;;16.20;82.53
15646;BME280;7922;43.622;1.476;2023-05-09T07:36:54;100359.59;;;17.22;80.89
15646;BME280;7922;43.622;1.476;2023-05-09T07:39:19;100369.16;;;17.53;80.58
15646;BME280;7922;43.622;1.476;2023-05-09T07:41:44;100367.16;;;17.56;79.29
15646;BME280;7922;43.622;1.476;2023-05-09T07:44:09;100320.38;;;17.21;78.47
15646;BME280;7922;43.622;1.476;2023-05-09T07:46:35;100362.75;;;17.55;78.42
15646;BME280;7922;43.622;1.476;2023-05-09T07:49:00;100237.03;;;16.86;77.73
15646;BME280;7922;43.622;1.476;2023-05-09T07:51:25;100305.38;;;17.45;77.91
15646;BME280;7922;43.622;1.476;2023-05-09T07:53:51;100358.19;;;17.85;76.44
15646;BME280;7922;43.622;1.476;2023-05-09T07:56:16;100350.84;;;17.47;77.66
15646;BME280;7922;43.622;1.476;2023-05-09T07:58:41;100401.44;;;17.51;78.08
15646;BME280;7922;43.622;1.476;2023-05-09T08:01:07;100353.94;;;17.26;77.90
15646;BME280;7922;43.622;1.476;2023-05-09T08:03:32;100365.47;;;17.41;78.43
15646;BME280;7922;43.622;1.476;2023-05-09T08:05:57;100360.16;;;17.27;78.71
15646;BME280;7922;43.622;1.476;2023-05-09T08:08:22;100218.13;;;16.74;78.35
15646;BME280;7922;43.622;1.476;2023-05-09T08:10:48;100346.19;;;17.63;78.07
15646;BME280;7922;43.622;1.476;2023-05-09T08:13:13;100334.09;;;17.70;77.17
15646;BME280;7922;43.622;1.476;2023-05-09T08:15:38;100382.50;;;18.21;76.63
15646;BME280;7922;43.622;1.476;2023-05-09T08:18:04;100328.06;;;17.54;76.77
15646;BME280;7922;43.622;1.476;2023-05-09T08:20:29;100390.31;;;18.12;77.02
15646;BME280;7922;43.622;1.476;2023-05-09T08:22:54;100239.66;;;17.54;75.97
15646;BME280;7922;43.622;1.476;2023-05-09T08:25:19;100207.25;;;17.17;76.00
15646;BME280;7922;43.622;1.476;2023-05-09T08:27:45;100351.97;;;18.37;75.56
15646;BME280;7922;43.622;1.476;2023-05-09T08:30:10;100298.84;;;18.29;73.72
15646;BME280;7922;43.622;1.476;2023-05-09T08:32:36;100257.97;;;18.25;72.43
15646;BME280;7922;43.622;1.476;2023-05-09T08:35:01;100363.63;;;18.88;72.44
15646;BME280;7922;43.622;1.476;2023-05-09T08:37:26;100337.06;;;18.58;72.76
15646;BME280;7922;43.622;1.476;2023-05-09T08:39:52;100334.16;;;18.61;72.76
15646;BME280;7922;43.622;1.476;2023-05-09T08:42:18;100268.94;;;18.35;72.80
15646;BME280;7922;43.622;1.476;2023-05-09T08:44:44;100353.94;;;18.86;71.07
15646;BME280;7922;43.622;1.476;2023-05-09T08:47:10;100348.56;;;18.86;70.50
15646;BME280;7922;43.622;1.476;2023-05-09T08:49:35;100365.06;;;19.18;69.58
15646;BME280;7922;43.622;1.476;2023-05-09T08:52:01;100307.25;;;18.88;67.52
15646;BME280;7922;43.622;1.476;2023-05-09T08:54:27;100285.88;;;18.61;66.09
15646;BME280;7922;43.622;1.476;2023-05-09T08:56:52;100315.41;;;18.48;65.26
15646;BME280;7922;43.622;1.476;2023-05-09T08:59:18;100344.16;;;18.59;66.22
15646;BME280;7922;43.622;1.476;2023-05-09T09:01:44;100349.00;;;18.92;65.42
15646;BME280;7922;43.622;1.476;2023-05-09T09:04:09;100336.84;;;18.87;65.12
15646;BME280;7922;43.622;1.476;2023-05-09T09:06:35;100230.53;;;18.22;63.11
15646;BME280;7922;43.622;1.476;2023-05-09T09:09:01;100204.38;;;18.13;62.14
15646;BME280;7922;43.622;1.476;2023-05-09T09:11:27;100266.16;;;18.24;58.40
15646;BME280;7922;43.622;1.476;2023-05-09T09:13:54;100370.59;;;18.78;54.46
15646;BME280;7922;43.622;1.476;2023-05-09T09:16:27;100364.66;;;18.60;51.33
15646;BME280;7922;43.622;1.476;2023-05-09T09:18:54;100334.78;;;18.14;52.19
15646;BME280;7922;43.622;1.476;2023-05-09T09:21:20;100335.84;;;18.11;52.46
15646;BME280;7922;43.622;1.476;2023-05-09T09:23:46;100335.66;;;18.27;52.50
15646;BME280;7922;43.622;1.476;2023-05-09T09:26:13;100282.53;;;18.07;52.65
15646;BME280;7922;43.622;1.476;2023-05-09T09:28:38;100350.28;;;18.48;52.85
15646;BME280;7922;43.622;1.476;2023-05-09T09:31:26;100359.91;;;18.38;52.15
15646;BME280;7922;43.622;1.476;2023-05-09T09:33:59;100374.59;;;18.20;51.81
15646;BME280;7922;43.622;1.476;2023-05-09T09:36:26;100243.03;;;17.16;53.23
15646;BME280;7922;43.622;1.476;2023-05-09T09:38:55;100392.84;;;17.88;53.98
15646;BME280;7922;43.622;1.476;2023-05-09T09:41:29;100337.72;;;17.42;55.26
15646;BME280;7922;43.622;1.476;2023-05-09T09:43:55;100379.63;;;17.85;55.87
15646;BME280;7922;43.622;1.476;2023-05-09T09:46:20;100232.59;;;16.84;56.32
15646;BME280;7922;43.622;1.476;2023-05-09T09:48:45;100376.94;;;17.85;57.48
15646;BME280;7922;43.622;1.476;2023-05-09T09:51:10;100381.28;;;17.73;58.56
15646;BME280;7922;43.622;1.476;2023-05-09T09:53:40;100382.66;;;17.93;60.78
15646;BME280;7922;43.622;1.476;2023-05-09T09:56:05;100349.56;;;17.11;48.11
15646;BME280;7922;43.622;1.476;2023-05-09T09:58:31;100371.16;;;17.22;58.10
15646;BME280;7922;43.622;1.476;2023-05-09T10:01:06;100247.59;;;16.16;58.42
15646;BME280;7922;43.622;1.476;2023-05-09T10:03:40;100323.28;;;16.60;63.83
15646;BME280;7922;43.622;1.476;2023-05-09T10:06:09;100390.69;;;16.81;67.30
15646;BME280;7922;43.622;1.476;2023-05-09T10:08:35;100409.19;;;16.84;69.01
15646;BME280;7922;43.622;1.476;2023-05-09T10:11:00;100342.06;;;16.59;70.91
15646;BME280;7922;43.622;1.476;2023-05-09T10:13:27;100349.66;;;16.95;70.08
15646;BME280;7922;43.622;1.476;2023-05-09T10:15:54;100387.78;;;16.84;70.37
15646;BME280;7922;43.622;1.476;2023-05-09T10:18:24;100414.13;;;16.62;75.94
15646;BME280;7922;43.622;1.476;2023-05-09T10:20:52;100364.53;;;16.12;77.92
15646;BME280;7922;43.622;1.476;2023-05-09T10:23:18;100391.31;;;15.96;81.95
15646;BME280;7922;43.622;1.476;2023-05-09T10:25:54;100420.53;;;15.99;83.52
15646;BME280;7922;43.622;1.476;2023-05-09T10:28:27;100376.34;;;15.30;85.77
15646;BME280;7922;43.622;1.476;2023-05-09T10:31:27;100433.41;;;15.77;87.73
15646;BME280;7922;43.622;1.476;2023-05-09T10:33:54;100296.84;;;14.88;88.47
15646;BME280;7922;43.622;1.476;2023-05-09T10:36:21;100283.41;;;14.74;89.60
15646;BME280;7922;43.622;1.476;2023-05-09T10:38:47;100381.13;;;15.08;91.19
15646;BME280;7922;43.622;1.476;2023-05-09T10:41:15;100418.94;;;15.16;92.30
15646;BME280;7922;43.622;1.476;2023-05-09T10:43:40;100402.56;;;15.06;91.24
15646;BME280;7922;43.622;1.476;2023-05-09T10:46:06;100364.38;;;14.73;91.75
15646;BME280;7922;43.622;1.476;2023-05-09T10:48:32;100419.88;;;15.15;90.85
15646;BME280;7922;43.622;1.476;2023-05-09T10:50:59;100392.13;;;14.86;91.94
15646;BME280;7922;43.622;1.476;2023-05-09T10:53:40;100269.53;;;14.51;91.71
15646;BME280;7922;43.622;1.476;2023-05-09T10:56:06;100402.84;;;14.84;93.71
15646;BME280;7922;43.622;1.476;2023-05-09T10:58:32;100374.28;;;14.71;95.18
15646;BME280;7922;43.622;1.476;2023-05-09T11:00:59;100365.47;;;15.02;94.17
15646;BME280;7922;43.622;1.476;2023-05-09T11:03:26;100420.78;;;15.63;93.78
15646;BME280;7922;43.622;1.476;2023-05-09T11:05:54;100332.34;;;15.22;91.54
15646;BME280;7922;43.622;1.476;2023-05-09T11:10:50;100389.56;;;15.32;93.16
15646;BME280;7922;43.622;1.476;2023-05-09T11:13:18;100428.00;;;15.61;93.84
15646;BME280;7922;43.622;1.476;2023-05-09T11:16:07;100392.78;;;15.54;92.85
15646;BME280;7922;43.622;1.476;2023-05-09T11:18:33;100385.66;;;15.71;92.81
15646;BME280;7922;43.622;1.476;2023-05-09T11:21:00;100428.38;;;15.86;92.93
15646;BME280;7922;43.622;1.476;2023-05-09T11:23:31;100370.81;;;15.49;93.53
15646;BME280;7922;43.622;1.476;2023-05-09T11:26:04;100382.88;;;15.56;93.61
15646;BME280;7922;43.622;1.476;2023-05-09T11:28:32;100369.81;;;15.36;94.29
15646;BME280;7922;43.622;1.476;2023-05-09T11:33:35;100337.81;;;15.03;95.26
15646;BME280;7922;43.622;1.476;2023-05-09T11:38:47;100392.78;;;15.38;96.30
15646;BME280;7922;43.622;1.476;2023-05-09T11:41:13;100403.03;;;15.46;96.62
15646;BME280;7922;43.622;1.476;2023-05-09T11:43:41;100417.53;;;15.58;97.33
15646;BME280;7922;43.622;1.476;2023-05-09T11:46:06;100433.34;;;15.61;96.75
15646;BME280;7922;43.622;1.476;2023-05-09T11:48:39;100371.00;;;15.30;97.43
15646;BME280;7922;43.622;1.476;2023-05-09T11:51:04;100326.88;;;14.91;97.80
15646;BME280;7922;43.622;1.476;2023-05-09T11:53:29;100399.50;;;15.61;98.40
15646;BME280;7922;43.622;1.476;2023-05-09T11:55:55;100401.66;;;15.55;98.58
15646;BME280;7922;43.622;1.476;2023-05-09T11:58:20;100434.53;;;15.73;98.73
15646;BME280;7922;43.622;1.476;2023-05-09T12:00:46;100286.28;;;15.02;98.54
15646;BME280;7922;43.622;1.476;2023-05-09T12:03:11;100416.75;;;15.87;98.36
15646;BME280;7922;43.622;1.476;2023-05-09T12:05:37;100430.97;;;15.88;97.99
15646;BME280;7922;43.622;1.476;2023-05-09T12:08:02;100376.78;;;15.54;99.34
15646;BME280;7922;43.622;1.476;2023-05-09T12:10:28;100394.16;;;15.61;99.40
15646;BME280;7922;43.622;1.476;2023-05-09T12:12:53;100368.06;;;15.19;98.64
15646;BME280;7922;43.622;1.476;2023-05-09T12:15:18;100321.72;;;14.88;100.00
15646;BME280;7922;43.622;1.476;2023-05-09T12:17:44;100410.97;;;15.48;99.03
15646;BME280;7922;43.622;1.476;2023-05-09T12:20:10;100367.09;;;15.20;99.79
15646;BME280;7922;43.622;1.476;2023-05-09T12:22:35;100350.28;;;14.86;99.45
15646;BME280;7922;43.622;1.476;2023-05-09T12:25:04;100331.09;;;14.96;99.72
15646;BME280;7922;43.622;1.476;2023-05-09T12:27:30;100377.13;;;15.48;99.70
15646;BME280;7922;43.622;1.476;2023-05-09T12:29:55;100406.91;;;15.40;99.26
15646;BME280;7922;43.622;1.476;2023-05-09T12:32:21;100415.78;;;15.41;99.50
15646;BME280;7922;43.622;1.476;2023-05-09T12:34:46;100428.66;;;15.66;98.39
15646;BME280;7922;43.622;1.476;2023-05-09T12:37:16;100409.31;;;15.29;99.11
15646;BME280;7922;43.622;1.476;2023-05-09T12:39:42;100344.25;;;14.83;99.23
15646;BME280;7922;43.622;1.476;2023-05-09T12:42:11;100308.09;;;14.77;100.00
15646;BME280;7922;43.622;1.476;2023-05-09T12:44:37;100444.91;;;15.61;99.26
15646;BME280;7922;43.622;1.476;2023-05-09T12:47:03;100427.16;;;15.45;99.98
15646;BME280;7922;43.622;1.476;2023-05-09T12:49:29;100457.38;;;15.45;100.00
15646;BME280;7922;43.622;1.476;2023-05-09T12:51:57;100387.34;;;14.75;100.00
15646;BME280;7922;43.622;1.476;2023-05-09T12:54:26;100416.47;;;14.96;100.00
15646;BME280;7922;43.622;1.476;2023-05-09T12:56:53;100306.41;;;14.26;100.00
15646;BME280;7922;43.622;1.476;2023-05-09T12:59:20;100477.81;;;15.13;100.00
15646;BME280;7922;43.622;1.476;2023-05-09T13:01:57;100467.28;;;15.10;100.00
15646;BME280;7922;43.622;1.476;2023-05-09T13:04:24;100388.53;;;14.52;100.00
15646;BME280;7922;43.622;1.476;2023-05-09T13:06:51;100452.91;;;14.97;100.00
15646;BME280;7922;43.622;1.476;2023-05-09T13:09:17;100482.59;;;15.06;100.00
15646;BME280;7922;43.622;1.476;2023-05-09T13:11:43;100455.56;;;14.97;100.00
15646;BME280;7922;43.622;1.476;2023-05-09T13:14:08;100478.03;;;15.26;100.00